sensor_id;sensor_type;location;lat;lon;timestamp;pressure;altitude;pressure_sealevel;temperature;humidity
73383;BME280;61600;48.126;11.542;2023-07-13T00:01:47;95610.63;;;21.66;72.93
73383;BME280;61600;48.126;11.542;2023-07-13T00:04:19;95608.56;;;21.78;72.83
73383;BME280;61600;48.126;11.542;2023-07-13T00:06:46;95604.97;;;21.31;73.22
73383;BME280;61600;48.126;11.542;2023-07-13T00:09:14;95601.63;;;21.53;73.67
73383;BME280;61600;48.126;11.542;2023-07-13T00:11:40;95599.03;;;21.76;73.00
73383;BME280;61600;48.126;11.542;2023-07-13T00:14:07;95603.50;;;21.49;74.28
73383;BME280;61600;48.126;11.542;2023-07-13T00:16:37;95593.72;;;21.39;73.01
73383;BME280;61600;48.126;11.542;2023-07-13T00:19:04;95595.97;;;21.34;73.35
73383;BME280;61600;48.126;11.542;2023-07-13T00:21:30;95592.56;;;21.40;73.62
73383;BME280;61600;48.126;11.542;2023-07-13T00:23:56;95601.00;;;21.60;73.06
73383;BME280;61600;48.126;11.542;2023-07-13T00:26:22;95594.72;;;21.78;72.37
73383;BME280;61600;48.126;11.542;2023-07-13T00:28:48;95591.72;;;21.83;72.21
73383;BME280;61600;48.126;11.542;2023-07-13T00:31:14;95588.41;;;21.94;71.41
73383;BME280;61600;48.126;11.542;2023-07-13T00:33:43;95599.09;;;21.48;72.60
73383;BME280;61600;48.126;11.542;2023-07-13T00:36:09;95604.56;;;21.45;72.16
73383;BME280;61600;48.126;11.542;2023-07-13T00:38:35;95610.00;;;21.72;71.69
73383;BME280;61600;48.126;11.542;2023-07-13T00:41:03;95608.84;;;21.73;71.13
73383;BME280;61600;48.126;11.542;2023-07-13T00:43:30;95614.59;;;21.96;70.66
73383;BME280;61600;48.126;11.542;2023-07-13T00:48:28;95608.41;;;21.87;70.71
73383;BME280;61600;48.126;11.542;2023-07-13T00:50:57;95614.56;;;21.80;70.54
73383;BME280;61600;48.126;11.542;2023-07-13T00:53:25;95621.00;;;21.53;71.79
73383;BME280;61600;48.126;11.542;2023-07-13T00:55:53;95608.31;;;21.68;71.04
73383;BME280;61600;48.126;11.542;2023-07-13T00:58:20;95614.88;;;21.91;70.49
73383;BME280;61600;48.126;11.542;2023-07-13T01:00:47;95614.88;;;21.91;70.67
73383;BME280;61600;48.126;11.542;2023-07-13T01:03:15;95604.41;;;22.00;69.36
73383;BME280;61600;48.126;11.542;2023-07-13T01:05:41;95598.69;;;21.93;70.11
73383;BME280;61600;48.126;11.542;2023-07-13T01:08:07;95597.72;;;22.01;69.70
73383;BME280;61600;48.126;11.542;2023-07-13T01:10:34;95585.00;;;22.00;69.54
73383;BME280;61600;48.126;11.542;2023-07-13T01:13:10;95581.25;;;22.08;69.67
73383;BME280;61600;48.126;11.542;2023-07-13T01:15:39;95576.28;;;21.98;69.20
73383;BME280;61600;48.126;11.542;2023-07-13T01:18:07;95575.00;;;21.96;69.29
73383;BME280;61600;48.126;11.542;2023-07-13T01:20:34;95578.31;;;22.01;70.05
73383;BME280;61600;48.126;11.542;2023-07-13T01:23:05;95576.44;;;22.05;69.93
73383;BME280;61600;48.126;11.542;2023-07-13T01:25:32;95566.94;;;22.06;69.25
73383;BME280;61600;48.126;11.542;2023-07-13T01:27:57;95561.22;;;21.99;69.82
73383;BME280;61600;48.126;11.542;2023-07-13T01:30:23;95557.94;;;21.94;69.68
73383;BME280;61600;48.126;11.542;2023-07-13T01:32:49;95560.28;;;21.92;69.71
73383;BME280;61600;48.126;11.542;2023-07-13T01:35:14;95565.09;;;21.95;70.19
73383;BME280;61600;48.126;11.542;2023-07-13T01:37:42;95564.38;;;21.51;71.22
73383;BME280;61600;48.126;11.542;2023-07-13T01:40:11;95556.72;;;21.60;71.78
73383;BME280;61600;48.126;11.542;2023-07-13T01:42:37;95552.06;;;21.48;71.55
73383;BME280;61600;48.126;11.542;2023-07-13T01:45:03;95547.41;;;21.52;71.75
73383;BME280;61600;48.126;11.542;2023-07-13T01:47:29;95563.13;;;21.64;71.59
73383;BME280;61600;48.126;11.542;2023-07-13T01:49:57;95566.06;;;21.55;71.76
73383;BME280;61600;48.126;11.542;2023-07-13T01:52:23;95571.59;;;21.24;73.13
73383;BME280;61600;48.126;11.542;2023-07-13T01:54:48;95574.47;;;21.59;72.83
73383;BME280;61600;48.126;11.542;2023-07-13T01:57:14;95587.69;;;21.50;72.51
73383;BME280;61600;48.126;11.542;2023-07-13T01:59:40;95600.34;;;21.51;72.66
73383;BME280;61600;48.126;11.542;2023-07-13T02:02:06;95589.84;;;21.56;72.56
73383;BME280;61600;48.126;11.542;2023-07-13T02:04:33;95591.34;;;21.54;72.86
73383;BME280;61600;48.126;11.542;2023-07-13T02:06:59;95598.94;;;21.57;72.24
73383;BME280;61600;48.126;11.542;2023-07-13T02:09:24;95595.38;;;21.56;72.27
73383;BME280;61600;48.126;11.542;2023-07-13T02:11:50;95602.97;;;21.59;72.47
73383;BME280;61600;48.126;11.542;2023-07-13T02:14:17;95600.72;;;21.49;73.08
73383;BME280;61600;48.126;11.542;2023-07-13T02:16:43;95607.16;;;21.69;72.61
73383;BME280;61600;48.126;11.542;2023-07-13T02:19:08;95600.19;;;21.75;71.72
73383;BME280;61600;48.126;11.542;2023-07-13T02:21:34;95600.19;;;21.75;71.67
73383;BME280;61600;48.126;11.542;2023-07-13T02:24:00;95595.38;;;21.56;71.88
73383;BME280;61600;48.126;11.542;2023-07-13T02:26:27;95604.69;;;21.36;73.85
73383;BME280;61600;48.126;11.542;2023-07-13T02:28:53;95606.34;;;21.53;72.34
73383;BME280;61600;48.126;11.542;2023-07-13T02:31:19;95606.53;;;21.75;73.15
73383;BME280;61600;48.126;11.542;2023-07-13T02:33:45;95608.94;;;21.77;73.50
73383;BME280;61600;48.126;11.542;2023-07-13T02:36:11;95616.16;;;21.81;73.10
73383;BME280;61600;48.126;11.542;2023-07-13T02:38:39;95618.41;;;21.76;72.53
73383;BME280;61600;48.126;11.542;2023-07-13T02:41:06;95635.75;;;21.73;72.39
73383;BME280;61600;48.126;11.542;2023-07-13T02:43:32;95638.94;;;21.75;72.03
73383;BME280;61600;48.126;11.542;2023-07-13T02:46:02;95650.03;;;21.75;72.24
73383;BME280;61600;48.126;11.542;2023-07-13T02:48:37;95658.41;;;21.63;75.98
73383;BME280;61600;48.126;11.542;2023-07-13T02:51:03;95650.59;;;21.37;77.25
73383;BME280;61600;48.126;11.542;2023-07-13T02:53:30;95663.16;;;20.79;80.42
73383;BME280;61600;48.126;11.542;2023-07-13T02:55:55;95662.22;;;20.75;80.55
73383;BME280;61600;48.126;11.542;2023-07-13T02:58:21;95656.59;;;20.71;79.36
73383;BME280;61600;48.126;11.542;2023-07-13T03:00:48;95671.03;;;20.40;79.54
73383;BME280;61600;48.126;11.542;2023-07-13T03:03:16;95666.31;;;20.05;79.46
73383;BME280;61600;48.126;11.542;2023-07-13T03:05:43;95660.06;;;19.83;80.67
73383;BME280;61600;48.126;11.542;2023-07-13T03:08:11;95662.81;;;19.95;78.94
73383;BME280;61600;48.126;11.542;2023-07-13T03:10:37;95659.72;;;19.73;78.76
73383;BME280;61600;48.126;11.542;2023-07-13T03:13:03;95668.69;;;19.82;80.05
73383;BME280;61600;48.126;11.542;2023-07-13T03:15:29;95662.03;;;19.83;79.56
73383;BME280;61600;48.126;11.542;2023-07-13T03:17:54;95676.75;;;19.87;79.07
73383;BME280;61600;48.126;11.542;2023-07-13T03:20:20;95686.84;;;19.71;79.12
73383;BME280;61600;48.126;11.542;2023-07-13T03:22:46;95673.59;;;19.64;79.54
73383;BME280;61600;48.126;11.542;2023-07-13T03:25:12;95679.56;;;19.01;80.56
73383;BME280;61600;48.126;11.542;2023-07-13T03:27:38;95673.81;;;19.26;80.23
73383;BME280;61600;48.126;11.542;2023-07-13T03:30:05;95670.88;;;19.31;80.07
73383;BME280;61600;48.126;11.542;2023-07-13T03:32:30;95673.72;;;19.56;80.48
73383;BME280;61600;48.126;11.542;2023-07-13T03:34:56;95674.41;;;19.53;79.68
73383;BME280;61600;48.126;11.542;2023-07-13T03:37:22;95688.31;;;19.56;79.55
73383;BME280;61600;48.126;11.542;2023-07-13T03:39:48;95690.34;;;19.47;78.00
73383;BME280;61600;48.126;11.542;2023-07-13T03:42:14;95691.63;;;19.50;79.42
73383;BME280;61600;48.126;11.542;2023-07-13T03:44:40;95692.22;;;19.55;78.58
73383;BME280;61600;48.126;11.542;2023-07-13T03:47:06;95689.78;;;19.54;79.46
73383;BME280;61600;48.126;11.542;2023-07-13T03:49:34;95686.47;;;19.60;79.56
73383;BME280;61600;48.126;11.542;2023-07-13T03:52:00;95693.41;;;19.78;79.05
73383;BME280;61600;48.126;11.542;2023-07-13T03:54:26;95688.00;;;19.70;78.43
73383;BME280;61600;48.126;11.542;2023-07-13T03:56:52;95686.59;;;19.52;79.17
73383;BME280;61600;48.126;11.542;2023-07-13T03:59:17;95683.13;;;19.55;79.06
73383;BME280;61600;48.126;11.542;2023-07-13T04:01:44;95686.19;;;19.41;79.13
73383;BME280;61600;48.126;11.542;2023-07-13T04:04:09;95695.56;;;19.61;79.02
73383;BME280;61600;48.126;11.542;2023-07-13T04:06:35;95693.47;;;19.58;77.67
73383;BME280;61600;48.126;11.542;2023-07-13T04:09:02;95697.88;;;19.59;80.09
73383;BME280;61600;48.126;11.542;2023-07-13T04:11:31;95704.63;;;19.49;79.27
73383;BME280;61600;48.126;11.542;2023-07-13T04:13:57;95691.84;;;19.44;79.24
73383;BME280;61600;48.126;11.542;2023-07-13T04:16:24;95694.06;;;19.30;79.53
73383;BME280;61600;48.126;11.542;2023-07-13T04:18:51;95696.41;;;19.40;79.41
73383;BME280;61600;48.126;11.542;2023-07-13T04:21:20;95700.56;;;19.47;78.70
73383;BME280;61600;48.126;11.542;2023-07-13T04:23:46;95697.88;;;19.59;78.23
73383;BME280;61600;48.126;11.542;2023-07-13T04:26:12;95703.25;;;19.55;78.35
73383;BME280;61600;48.126;11.542;2023-07-13T04:28:38;95700.16;;;19.57;77.82
73383;BME280;61600;48.126;11.542;2023-07-13T04:31:04;95706.47;;;19.57;77.81
73383;BME280;61600;48.126;11.542;2023-07-13T04:33:30;95706.41;;;19.66;77.70
73383;BME280;61600;48.126;11.542;2023-07-13T04:35:56;95708.78;;;19.67;78.30
73383;BME280;61600;48.126;11.542;2023-07-13T04:38:24;95717.38;;;19.54;78.47
73383;BME280;61600;48.126;11.542;2023-07-13T04:40:51;95708.53;;;19.60;78.48
73383;BME280;61600;48.126;11.542;2023-07-13T04:43:17;95713.03;;;19.53;77.75
73383;BME280;61600;48.126;11.542;2023-07-13T04:45:43;95718.44;;;19.61;77.88
73383;BME280;61600;48.126;11.542;2023-07-13T04:48:09;95717.69;;;19.19;77.55
73383;BME280;61600;48.126;11.542;2023-07-13T04:50:37;95720.28;;;19.36;77.70
73383;BME280;61600;48.126;11.542;2023-07-13T04:53:04;95720.38;;;19.28;77.60
73383;BME280;61600;48.126;11.542;2023-07-13T04:55:30;95726.84;;;19.65;77.85
73383;BME280;61600;48.126;11.542;2023-07-13T04:57:57;95726.22;;;19.47;78.13
73383;BME280;61600;48.126;11.542;2023-07-13T05:00:26;95725.03;;;19.69;77.50
73383;BME280;61600;48.126;11.542;2023-07-13T05:02:54;95727.13;;;19.84;77.56
73383;BME280;61600;48.126;11.542;2023-07-13T05:05:20;95734.13;;;19.81;77.13
73383;BME280;61600;48.126;11.542;2023-07-13T05:07:46;95733.81;;;19.95;77.53
73383;BME280;61600;48.126;11.542;2023-07-13T05:10:11;95736.91;;;19.81;76.40
73383;BME280;61600;48.126;11.542;2023-07-13T05:12:37;95741.59;;;19.69;76.54
73383;BME280;61600;48.126;11.542;2023-07-13T05:15:03;95733.13;;;19.86;76.42
73383;BME280;61600;48.126;11.542;2023-07-13T05:17:29;95739.28;;;19.71;77.17
73383;BME280;61600;48.126;11.542;2023-07-13T05:19:55;95736.53;;;19.71;76.98
73383;BME280;61600;48.126;11.542;2023-07-13T05:22:21;95736.00;;;19.89;76.99
73383;BME280;61600;48.126;11.542;2023-07-13T05:24:46;95742.28;;;19.66;76.66
73383;BME280;61600;48.126;11.542;2023-07-13T05:27:12;95738.69;;;19.65;76.33
73383;BME280;61600;48.126;11.542;2023-07-13T05:29:38;95739.56;;;19.90;76.92
73383;BME280;61600;48.126;11.542;2023-07-13T05:32:04;95746.47;;;19.96;76.64
73383;BME280;61600;48.126;11.542;2023-07-13T05:34:30;95742.81;;;20.04;76.77
73383;BME280;61600;48.126;11.542;2023-07-13T05:36:56;95751.47;;;20.15;77.43
73383;BME280;61600;48.126;11.542;2023-07-13T05:39:22;95745.91;;;19.58;76.38
73383;BME280;61600;48.126;11.542;2023-07-13T05:41:48;95752.69;;;19.93;77.13
73383;BME280;61600;48.126;11.542;2023-07-13T05:44:14;95748.81;;;20.18;76.36
73383;BME280;61600;48.126;11.542;2023-07-13T05:46:39;95756.34;;;20.30;75.88
73383;BME280;61600;48.126;11.542;2023-07-13T05:49:05;95750.31;;;20.16;74.38
73383;BME280;61600;48.126;11.542;2023-07-13T05:51:31;95750.00;;;20.41;74.43
73383;BME280;61600;48.126;11.542;2023-07-13T05:53:57;95750.38;;;20.40;73.99
73383;BME280;61600;48.126;11.542;2023-07-13T05:56:22;95755.75;;;20.49;74.05
73383;BME280;61600;48.126;11.542;2023-07-13T05:58:49;95751.16;;;20.65;74.07
73383;BME280;61600;48.126;11.542;2023-07-13T06:01:15;95747.38;;;20.33;74.13
73383;BME280;61600;48.126;11.542;2023-07-13T06:03:41;95744.81;;;20.52;73.75
73383;BME280;61600;48.126;11.542;2023-07-13T06:06:08;95748.75;;;20.63;73.12
73383;BME280;61600;48.126;11.542;2023-07-13T06:08:35;95750.22;;;20.73;73.19
73383;BME280;61600;48.126;11.542;2023-07-13T06:11:03;95756.94;;;20.48;73.53
73383;BME280;61600;48.126;11.542;2023-07-13T06:13:29;95758.75;;;20.80;74.46
73383;BME280;61600;48.126;11.542;2023-07-13T06:15:54;95774.75;;;20.86;73.80
73383;BME280;61600;48.126;11.542;2023-07-13T06:18:20;95772.34;;;20.85;74.24
73383;BME280;61600;48.126;11.542;2023-07-13T06:20:46;95776.59;;;20.94;73.65
73383;BME280;61600;48.126;11.542;2023-07-13T06:23:11;95764.34;;;21.08;72.67
73383;BME280;61600;48.126;11.542;2023-07-13T06:25:37;95768.38;;;21.22;71.77
73383;BME280;61600;48.126;11.542;2023-07-13T06:28:03;95769.66;;;21.25;70.50
73383;BME280;61600;48.126;11.542;2023-07-13T06:30:29;95774.00;;;21.38;69.56
73383;BME280;61600;48.126;11.542;2023-07-13T06:33:03;95780.03;;;21.16;69.65
73383;BME280;61600;48.126;11.542;2023-07-13T06:35:28;95783.50;;;21.25;70.38
73383;BME280;61600;48.126;11.542;2023-07-13T06:37:54;95782.88;;;21.31;69.22
73383;BME280;61600;48.126;11.542;2023-07-13T06:40:20;95796.97;;;21.02;68.76
73383;BME280;61600;48.126;11.542;2023-07-13T06:42:46;95794.44;;;21.09;69.60
73383;BME280;61600;48.126;11.542;2023-07-13T06:45:11;95802.75;;;21.21;69.17
73383;BME280;61600;48.126;11.542;2023-07-13T06:47:37;95805.97;;;21.11;68.03
73383;BME280;61600;48.126;11.542;2023-07-13T06:50:03;95798.72;;;20.94;68.64
73383;BME280;61600;48.126;11.542;2023-07-13T06:52:29;95808.28;;;21.21;68.42
73383;BME280;61600;48.126;11.542;2023-07-13T06:54:54;95807.69;;;20.91;69.36
73383;BME280;61600;48.126;11.542;2023-07-13T06:57:21;95811.75;;;20.82;68.77
73383;BME280;61600;48.126;11.542;2023-07-13T06:59:46;95810.91;;;21.06;67.82
73383;BME280;61600;48.126;11.542;2023-07-13T07:02:12;95806.44;;;21.13;67.61
73383;BME280;61600;48.126;11.542;2023-07-13T07:04:38;95820.13;;;21.10;67.16
73383;BME280;61600;48.126;11.542;2023-07-13T07:07:04;95819.56;;;21.16;66.91
73383;BME280;61600;48.126;11.542;2023-07-13T07:09:29;95823.00;;;21.37;66.53
73383;BME280;61600;48.126;11.542;2023-07-13T07:11:57;95811.63;;;21.55;65.97
73383;BME280;61600;48.126;11.542;2023-07-13T07:14:23;95812.63;;;21.34;67.25
73383;BME280;61600;48.126;11.542;2023-07-13T07:16:49;95827.59;;;21.33;66.01
73383;BME280;61600;48.126;11.542;2023-07-13T07:19:16;95817.13;;;21.39;66.53
73383;BME280;61600;48.126;11.542;2023-07-13T07:21:44;95808.44;;;21.40;65.35
73383;BME280;61600;48.126;11.542;2023-07-13T07:24:09;95803.31;;;21.67;64.74
73383;BME280;61600;48.126;11.542;2023-07-13T07:26:35;95819.19;;;21.30;65.74
73383;BME280;61600;48.126;11.542;2023-07-13T07:29:01;95815.19;;;21.15;64.95
73383;BME280;61600;48.126;11.542;2023-07-13T07:31:27;95824.50;;;21.23;64.94
73383;BME280;61600;48.126;11.542;2023-07-13T07:33:53;95821.88;;;21.02;64.30
73383;BME280;61600;48.126;11.542;2023-07-13T07:36:18;95825.78;;;21.01;64.92
73383;BME280;61600;48.126;11.542;2023-07-13T07:38:44;95821.88;;;20.90;65.42
73383;BME280;61600;48.126;11.542;2023-07-13T07:41:11;95830.53;;;21.25;65.57
73383;BME280;61600;48.126;11.542;2023-07-13T07:43:56;95836.50;;;21.15;64.62
73383;BME280;61600;48.126;11.542;2023-07-13T07:46:22;95849.09;;;21.12;63.96
73383;BME280;61600;48.126;11.542;2023-07-13T07:48:48;95853.22;;;21.30;64.05
73383;BME280;61600;48.126;11.542;2023-07-13T07:51:14;95850.44;;;21.42;64.13
73383;BME280;61600;48.126;11.542;2023-07-13T07:53:39;95856.31;;;21.29;63.67
73383;BME280;61600;48.126;11.542;2023-07-13T07:56:05;95849.63;;;20.93;63.89
73383;BME280;61600;48.126;11.542;2023-07-13T07:58:31;95859.44;;;21.03;64.87
73383;BME280;61600;48.126;11.542;2023-07-13T08:01:04;95868.22;;;20.93;64.78
73383;BME280;61600;48.126;11.542;2023-07-13T08:03:30;95867.25;;;21.01;64.26
73383;BME280;61600;48.126;11.542;2023-07-13T08:05:56;95872.59;;;20.82;65.18
73383;BME280;61600;48.126;11.542;2023-07-13T08:08:22;95871.88;;;20.85;63.05
73383;BME280;61600;48.126;11.542;2023-07-13T08:10:48;95873.63;;;20.89;63.14
73383;BME280;61600;48.126;11.542;2023-07-13T08:13:13;95877.97;;;20.90;62.22
73383;BME280;61600;48.126;11.542;2023-07-13T08:15:39;95876.03;;;20.91;62.70
73383;BME280;61600;48.126;11.542;2023-07-13T08:18:06;95879.50;;;21.00;62.87
73383;BME280;61600;48.126;11.542;2023-07-13T08:20:38;95882.03;;;21.05;62.47
73383;BME280;61600;48.126;11.542;2023-07-13T08:23:05;95881.09;;;20.65;63.39
73383;BME280;61600;48.126;11.542;2023-07-13T08:25:32;95888.34;;;20.57;63.86
73383;BME280;61600;48.126;11.542;2023-07-13T08:27:57;95876.03;;;20.79;64.33
73383;BME280;61600;48.126;11.542;2023-07-13T08:30:23;95885.78;;;20.52;64.21
73383;BME280;61600;48.126;11.542;2023-07-13T08:32:49;95885.44;;;20.66;64.44
73383;BME280;61600;48.126;11.542;2023-07-13T08:35:15;95894.56;;;20.90;64.51
73383;BME280;61600;48.126;11.542;2023-07-13T08:37:41;95898.16;;;20.79;64.40
73383;BME280;61600;48.126;11.542;2023-07-13T08:40:11;95897.72;;;20.89;64.11
73383;BME280;61600;48.126;11.542;2023-07-13T08:42:53;95894.59;;;20.78;63.27
73383;BME280;61600;48.126;11.542;2023-07-13T08:45:22;95892.06;;;21.10;60.24
73383;BME280;61600;48.126;11.542;2023-07-13T08:47:53;95891.03;;;21.38;60.59
73383;BME280;61600;48.126;11.542;2023-07-13T08:50:26;95894.72;;;21.30;59.98
73383;BME280;61600;48.126;11.542;2023-07-13T08:52:54;95901.75;;;21.52;59.98
73383;BME280;61600;48.126;11.542;2023-07-13T08:55:34;95907.53;;;21.11;59.61
73383;BME280;61600;48.126;11.542;2023-07-13T08:58:10;95907.88;;;21.33;58.64
73383;BME280;61600;48.126;11.542;2023-07-13T09:01:02;95904.88;;;21.38;58.63
73383;BME280;61600;48.126;11.542;2023-07-13T09:06:22;95902.75;;;20.87;56.60
73383;BME280;61600;48.126;11.542;2023-07-13T09:09:02;95901.31;;;21.14;59.20
73383;BME280;61600;48.126;11.542;2023-07-13T09:11:57;95893.00;;;21.26;57.04
73383;BME280;61600;48.126;11.542;2023-07-13T09:17:05;95897.94;;;21.57;58.22
73383;BME280;61600;48.126;11.542;2023-07-13T09:19:32;95898.25;;;21.67;58.14
73383;BME280;61600;48.126;11.542;2023-07-13T09:22:01;95898.75;;;21.85;56.05
73383;BME280;61600;48.126;11.542;2023-07-13T09:26:57;95893.50;;;21.68;54.25
73383;BME280;61600;48.126;11.542;2023-07-13T09:29:28;95889.78;;;21.76;53.12
73383;BME280;61600;48.126;11.542;2023-07-13T09:31:57;95889.53;;;21.93;52.74
73383;BME280;61600;48.126;11.542;2023-07-13T09:34:25;95889.75;;;22.00;52.66
73383;BME280;61600;48.126;11.542;2023-07-13T09:36:51;95902.44;;;22.01;52.43
73383;BME280;61600;48.126;11.542;2023-07-13T09:39:30;95910.66;;;21.98;51.77
73383;BME280;61600;48.126;11.542;2023-07-13T09:44:54;95907.13;;;21.73;51.78
73383;BME280;61600;48.126;11.542;2023-07-13T09:49:57;95900.47;;;22.02;52.28
73383;BME280;61600;48.126;11.542;2023-07-13T09:52:24;95897.03;;;22.20;51.04
73383;BME280;61600;48.126;11.542;2023-07-13T09:54:52;95898.66;;;22.21;50.26
73383;BME280;61600;48.126;11.542;2023-07-13T09:57:26;95908.09;;;22.05;51.85
73383;BME280;61600;48.126;11.542;2023-07-13T09:59:54;95901.06;;;22.51;53.73
73383;BME280;61600;48.126;11.542;2023-07-13T10:02:41;95893.34;;;23.03;53.88
73383;BME280;61600;48.126;11.542;2023-07-13T10:05:13;95903.81;;;22.78;55.67
73383;BME280;61600;48.126;11.542;2023-07-13T10:07:43;95904.34;;;22.68;54.72
73383;BME280;61600;48.126;11.542;2023-07-13T10:10:21;95898.91;;;22.44;55.87
73383;BME280;61600;48.126;11.542;2023-07-13T10:12:49;95907.19;;;22.87;51.67
73383;BME280;61600;48.126;11.542;2023-07-13T10:15:21;95903.09;;;22.81;52.96
73383;BME280;61600;48.126;11.542;2023-07-13T10:17:49;95910.44;;;23.05;49.53
73383;BME280;61600;48.126;11.542;2023-07-13T10:20:15;95911.31;;;23.75;47.28
73383;BME280;61600;48.126;11.542;2023-07-13T10:22:50;95920.94;;;23.43;46.95
73383;BME280;61600;48.126;11.542;2023-07-13T10:25:20;95916.25;;;23.31;44.04
73383;BME280;61600;48.126;11.542;2023-07-13T10:27:50;95907.53;;;23.33;41.35
73383;BME280;61600;48.126;11.542;2023-07-13T10:30:38;95906.22;;;23.43;40.22
73383;BME280;61600;48.126;11.542;2023-07-13T10:33:10;95901.78;;;24.11;41.77
73383;BME280;61600;48.126;11.542;2023-07-13T10:35:39;95902.19;;;24.71;40.43
73383;BME280;61600;48.126;11.542;2023-07-13T10:38:11;95908.91;;;24.47;38.20
73383;BME280;61600;48.126;11.542;2023-07-13T10:40:45;95916.91;;;24.29;37.96
73383;BME280;61600;48.126;11.542;2023-07-13T10:43:22;95910.63;;;24.13;39.13
73383;BME280;61600;48.126;11.542;2023-07-13T10:45:50;95914.47;;;24.28;39.16
73383;BME280;61600;48.126;11.542;2023-07-13T10:48:17;95906.94;;;24.48;39.62
73383;BME280;61600;48.126;11.542;2023-07-13T10:50:45;95901.03;;;24.72;38.79
73383;BME280;61600;48.126;11.542;2023-07-13T10:58:37;95916.19;;;23.98;41.47
73383;BME280;61600;48.126;11.542;2023-07-13T11:04:01;95923.94;;;24.23;41.83
73383;BME280;61600;48.126;11.542;2023-07-13T11:08:58;95923.63;;;24.48;41.63
73383;BME280;61600;48.126;11.542;2023-07-13T11:11:35;95922.81;;;24.66;41.62
73383;BME280;61600;48.126;11.542;2023-07-13T11:14:03;95925.03;;;24.38;41.91
73383;BME280;61600;48.126;11.542;2023-07-13T11:16:44;95922.09;;;24.92;41.84
73383;BME280;61600;48.126;11.542;2023-07-13T11:22:11;95921.69;;;25.88;40.55
73383;BME280;61600;48.126;11.542;2023-07-13T11:24:51;95926.50;;;25.91;39.11
73383;BME280;61600;48.126;11.542;2023-07-13T11:27:33;95916.41;;;26.39;38.93
73383;BME280;61600;48.126;11.542;2023-07-13T11:30:22;95913.63;;;26.09;39.02
73383;BME280;61600;48.126;11.542;2023-07-13T11:38:35;95890.81;;;25.74;37.39
73383;BME280;61600;48.126;11.542;2023-07-13T11:41:19;95902.53;;;25.87;37.66
73383;BME280;61600;48.126;11.542;2023-07-13T11:43:49;95888.31;;;25.65;35.01
73383;BME280;61600;48.126;11.542;2023-07-13T11:46:22;95882.41;;;25.70;35.44
73383;BME280;61600;48.126;11.542;2023-07-13T11:48:49;95886.31;;;25.92;34.80
73383;BME280;61600;48.126;11.542;2023-07-13T11:51:28;95881.75;;;25.80;34.51
73383;BME280;61600;48.126;11.542;2023-07-13T11:53:58;95888.25;;;25.62;36.07
73383;BME280;61600;48.126;11.542;2023-07-13T11:56:27;95876.69;;;25.86;36.46
73383;BME280;61600;48.126;11.542;2023-07-13T11:58:55;95865.47;;;25.82;36.18
73383;BME280;61600;48.126;11.542;2023-07-13T12:01:27;95871.13;;;25.60;36.58
73383;BME280;61600;48.126;11.542;2023-07-13T12:04:04;95870.31;;;25.59;36.69
73383;BME280;61600;48.126;11.542;2023-07-13T12:06:34;95879.66;;;25.48;37.16
73383;BME280;61600;48.126;11.542;2023-07-13T12:09:08;95884.66;;;25.88;36.25
73383;BME280;61600;48.126;11.542;2023-07-13T12:11:41;95877.41;;;26.46;35.83
73383;BME280;61600;48.126;11.542;2023-07-13T12:14:17;95872.88;;;25.71;36.54
73383;BME280;61600;48.126;11.542;2023-07-13T12:16:45;95875.00;;;25.81;36.78
73383;BME280;61600;48.126;11.542;2023-07-13T12:19:20;95869.84;;;25.83;36.64
73383;BME280;61600;48.126;11.542;2023-07-13T12:21:47;95866.69;;;25.85;36.24
73383;BME280;61600;48.126;11.542;2023-07-13T12:24:17;95868.25;;;26.12;36.64
73383;BME280;61600;48.126;11.542;2023-07-13T12:26:44;95846.59;;;26.69;36.18
73383;BME280;61600;48.126;11.542;2023-07-13T12:29:16;95860.75;;;26.53;36.18
73383;BME280;61600;48.126;11.542;2023-07-13T12:31:44;95854.25;;;26.39;35.72
73383;BME280;61600;48.126;11.542;2023-07-13T12:34:12;95858.63;;;26.40;36.45
73383;BME280;61600;48.126;11.542;2023-07-13T12:36:56;95863.38;;;26.72;36.90
73383;BME280;61600;48.126;11.542;2023-07-13T12:39:35;95854.56;;;26.33;36.95
73383;BME280;61600;48.126;11.542;2023-07-13T12:42:22;95860.53;;;26.02;38.63
73383;BME280;61600;48.126;11.542;2023-07-13T12:47:43;95841.47;;;26.08;37.74
73383;BME280;61600;48.126;11.542;2023-07-13T12:50:19;95838.03;;;26.51;36.79
73383;BME280;61600;48.126;11.542;2023-07-13T12:52:51;95844.09;;;26.23;36.87
73383;BME280;61600;48.126;11.542;2023-07-13T12:55:19;95838.66;;;26.04;37.43
73383;BME280;61600;48.126;11.542;2023-07-13T12:57:51;95839.72;;;26.59;36.57
73383;BME280;61600;48.126;11.542;2023-07-13T13:02:51;95828.78;;;27.31;34.70
73383;BME280;61600;48.126;11.542;2023-07-13T13:05:18;95830.78;;;27.93;33.95
73383;BME280;61600;48.126;11.542;2023-07-13T13:07:44;95823.72;;;28.20;32.92
73383;BME280;61600;48.126;11.542;2023-07-13T13:10:13;95825.00;;;28.44;32.43
73383;BME280;61600;48.126;11.542;2023-07-13T13:12:40;95822.72;;;28.81;31.84
73383;BME280;61600;48.126;11.542;2023-07-13T13:15:09;95815.88;;;29.60;30.40
73383;BME280;61600;48.126;11.542;2023-07-13T13:17:35;95821.31;;;30.23;30.21
73383;BME280;61600;48.126;11.542;2023-07-13T13:20:01;95818.22;;;29.93;29.63
73383;BME280;61600;48.126;11.542;2023-07-13T13:22:28;95807.91;;;29.23;30.36
73383;BME280;61600;48.126;11.542;2023-07-13T13:24:54;95825.25;;;28.03;31.95
73383;BME280;61600;48.126;11.542;2023-07-13T13:27:21;95835.78;;;28.35;31.41
73383;BME280;61600;48.126;11.542;2023-07-13T13:29:51;95821.03;;;28.52;31.47
73383;BME280;61600;48.126;11.542;2023-07-13T13:32:23;95827.69;;;28.12;31.49
73383;BME280;61600;48.126;11.542;2023-07-13T13:34:49;95838.09;;;28.18;31.82
73383;BME280;61600;48.126;11.542;2023-07-13T13:37:23;95821.53;;;27.82;32.25